createdAt,value
2018-10-11T00:00:54.321Z,15.14
2018-10-11T00:01:58.769Z,15.19
2018-10-11T00:03:03.116Z,15.20
2018-10-11T00:04:07.437Z,15.20
2018-10-11T00:05:11.798Z,15.23
2018-10-11T00:06:16.150Z,15.27
2018-10-11T00:07:20.776Z,15.31
2018-10-11T00:08:25.122Z,15.39
2018-10-11T00:09:29.686Z,15.53
2018-10-11T00:10:34.034Z,15.54
2018-10-11T00:11:38.511Z,15.51
2018-10-11T00:12:42.817Z,15.52
2018-10-11T00:13:47.616Z,15.45
2018-10-11T00:14:52.003Z,15.42
2018-10-11T00:15:56.404Z,15.44
2018-10-11T00:17:00.753Z,15.39
2018-10-11T00:18:05.065Z,15.37
2018-10-11T00:19:10.080Z,15.33
2018-10-11T00:20:14.802Z,15.27
2018-10-11T00:21:19.289Z,15.24
2018-10-11T00:22:23.888Z,15.20
2018-10-11T00:23:28.264Z,15.18
2018-10-11T00:24:33.462Z,15.15
2018-10-11T00:25:37.838Z,15.09
2018-10-11T00:26:42.524Z,15.04
2018-10-11T00:27:46.886Z,14.99
2018-10-11T00:28:51.285Z,14.95
2018-10-11T00:29:55.622Z,14.92
2018-10-11T00:30:59.922Z,14.91
2018-10-11T00:32:04.237Z,14.90
2018-10-11T00:33:09.032Z,14.88
2018-10-11T00:34:13.451Z,14.85
2018-10-11T00:35:17.777Z,14.83
2018-10-11T00:36:22.105Z,14.82
2018-10-11T00:37:27.465Z,14.80
2018-10-11T00:38:31.794Z,14.83
2018-10-11T00:39:36.422Z,14.83
2018-10-11T00:40:40.816Z,14.82
2018-10-11T00:41:45.169Z,14.86
2018-10-11T00:42:49.519Z,14.91
2018-10-11T00:43:53.907Z,14.94
2018-10-11T00:44:58.282Z,14.93
2018-10-11T00:46:02.889Z,14.91
2018-10-11T00:47:07.439Z,14.92
2018-10-11T00:48:12.111Z,14.90
2018-10-11T00:49:16.504Z,14.87
2018-10-11T00:50:20.844Z,14.85
2018-10-11T00:51:25.396Z,14.81
2018-10-11T00:52:31.023Z,14.79
2018-10-11T00:53:35.377Z,14.82
2018-10-11T00:54:39.715Z,14.81
2018-10-11T00:55:44.073Z,14.79
2018-10-11T00:56:48.394Z,14.78
2018-10-11T00:57:53.336Z,14.76
2018-10-11T00:58:58.007Z,14.76
2018-10-11T01:00:02.397Z,14.76
2018-10-11T01:01:06.751Z,14.81
2018-10-11T01:02:11.842Z,14.82
2018-10-11T01:03:16.516Z,14.84
2018-10-11T01:04:21.689Z,14.90
2018-10-11T01:05:26.049Z,14.95
2018-10-11T01:06:30.397Z,15.01
2018-10-11T01:07:34.742Z,15.04
2018-10-11T01:08:39.684Z,15.03
2018-10-11T01:09:44.092Z,15.09
2018-10-11T01:10:48.449Z,15.11
2018-10-11T01:11:53.080Z,15.08
2018-10-11T01:12:57.432Z,15.06
2018-10-11T01:14:02.073Z,15.12
2018-10-11T01:15:06.565Z,15.21
2018-10-11T01:16:10.903Z,15.19
2018-10-11T01:17:15.271Z,15.12
2018-10-11T01:18:19.885Z,15.09
2018-10-11T01:19:24.242Z,15.07
2018-10-11T01:20:28.593Z,15.06
2018-10-11T01:21:32.974Z,15.03
2018-10-11T01:22:37.334Z,15.05
2018-10-11T01:23:41.748Z,15.06
2018-10-11T01:24:46.433Z,15.07
2018-10-11T01:25:50.793Z,15.10
2018-10-11T01:26:55.187Z,15.10
2018-10-11T01:27:59.576Z,15.18
2018-10-11T01:29:03.960Z,15.18
2018-10-11T01:30:08.401Z,15.15
2018-10-11T01:31:18.234Z,15.19
2018-10-11T01:32:22.657Z,15.13
2018-10-11T01:33:26.998Z,15.08
2018-10-11T01:34:31.358Z,15.06
2018-10-11T01:35:35.702Z,15.09
2018-10-11T01:36:40.090Z,15.09
2018-10-11T01:37:45.616Z,15.03
2018-10-11T01:38:50.657Z,14.97
2018-10-11T01:39:55.032Z,14.91
2018-10-11T01:40:59.400Z,14.87
2018-10-11T01:42:03.750Z,14.86
2018-10-11T01:43:08.078Z,14.81
2018-10-11T01:44:14.081Z,14.75
2018-10-11T01:45:18.493Z,14.74
2018-10-11T01:46:22.837Z,14.73
2018-10-11T01:47:27.174Z,14.69
2018-10-11T01:48:32.666Z,14.64
2018-10-11T01:49:37.761Z,14.61
2018-10-11T01:50:43.436Z,14.56
2018-10-11T01:51:47.866Z,14.54
2018-10-11T01:52:53.086Z,14.58
2018-10-11T01:53:57.451Z,14.59
2018-10-11T01:55:01.873Z,14.48
2018-10-11T01:56:06.234Z,14.41
2018-10-11T01:57:11.449Z,14.34
2018-10-11T01:58:15.808Z,14.42
2018-10-11T01:59:20.189Z,14.55
2018-10-11T02:00:24.956Z,14.58
2018-10-11T02:01:29.379Z,14.52
2018-10-11T02:02:34.735Z,14.45
2018-10-11T02:03:39.436Z,14.46
2018-10-11T02:04:44.787Z,14.42
2018-10-11T02:05:49.117Z,14.45
2018-10-11T02:06:53.760Z,14.44
2018-10-11T02:07:59.026Z,14.43
2018-10-11T02:09:03.606Z,14.38
2018-10-11T02:10:08.347Z,14.41
2018-10-11T02:11:12.706Z,14.48
2018-10-11T02:12:17.073Z,14.47
2018-10-11T02:13:21.476Z,14.43
2018-10-11T02:14:25.885Z,14.39
2018-10-11T02:15:30.610Z,14.38
2018-10-11T02:16:36.030Z,14.32
2018-10-11T02:17:40.561Z,14.20
2018-10-11T02:18:44.964Z,14.10
2018-10-11T02:19:49.346Z,14.10
2018-10-11T02:20:53.702Z,14.10
2018-10-11T02:21:58.097Z,14.14
2018-10-11T02:23:06.485Z,14.16
2018-10-11T02:24:11.423Z,14.17
2018-10-11T02:25:15.771Z,14.14
2018-10-11T02:26:20.394Z,14.17
2018-10-11T02:27:24.765Z,14.22
2018-10-11T02:28:29.150Z,14.20
2018-10-11T02:29:33.926Z,14.18
2018-10-11T02:30:38.283Z,14.20
2018-10-11T02:31:42.645Z,14.26
2018-10-11T02:32:47.034Z,14.26
2018-10-11T02:33:51.397Z,14.23
2018-10-11T02:34:55.783Z,14.21
2018-10-11T02:36:00.610Z,14.19
2018-10-11T02:37:04.999Z,14.16
2018-10-11T02:38:09.580Z,14.15
2018-10-11T02:39:13.971Z,14.14
2018-10-11T02:40:18.332Z,14.10
2018-10-11T02:41:22.752Z,14.08
2018-10-11T02:42:28.251Z,14.07
2018-10-11T02:43:32.808Z,14.07
2018-10-11T02:44:37.170Z,14.10
2018-10-11T02:45:41.514Z,14.12
2018-10-11T02:46:45.874Z,14.10
2018-10-11T02:47:50.218Z,14.10
2018-10-11T02:48:54.872Z,14.08
2018-10-11T02:49:59.236Z,14.05
2018-10-11T02:51:03.575Z,14.02
2018-10-11T02:52:08.003Z,13.97
2018-10-11T02:53:12.332Z,13.91
2018-10-11T02:54:16.708Z,13.82
2018-10-11T02:55:22.424Z,13.77
2018-10-11T02:56:27.070Z,13.76
2018-10-11T02:57:36.596Z,13.74
2018-10-11T02:58:46.204Z,13.72
2018-10-11T02:59:50.652Z,13.73
2018-10-11T03:00:55.084Z,13.72
2018-10-11T03:01:59.992Z,13.68
2018-10-11T03:03:05.603Z,13.65
2018-10-11T03:04:09.941Z,13.63
2018-10-11T03:05:17.241Z,13.63
2018-10-11T03:06:24.576Z,13.62
2018-10-11T03:07:29.496Z,13.66
2018-10-11T03:08:34.586Z,13.69
2018-10-11T03:09:40.907Z,13.78
2018-10-11T03:10:45.414Z,13.77
2018-10-11T03:11:49.774Z,13.76
2018-10-11T03:12:54.162Z,13.74
2018-10-11T03:13:58.629Z,13.73
2018-10-11T03:15:03.481Z,13.71
2018-10-11T03:16:07.896Z,13.68
2018-10-11T03:17:12.266Z,13.64
2018-10-11T03:18:16.661Z,13.45
2018-10-11T03:19:21.003Z,13.31
2018-10-11T03:20:25.381Z,13.20
2018-10-11T03:21:30.055Z,13.16
2018-10-11T03:22:34.455Z,13.18
2018-10-11T03:23:38.815Z,13.20
2018-10-11T03:24:44.020Z,13.13
2018-10-11T03:25:48.435Z,12.99
2018-10-11T03:26:54.473Z,13.00
2018-10-11T03:27:58.900Z,13.01
2018-10-11T03:29:03.270Z,13.02
2018-10-11T03:30:07.670Z,13.03
2018-10-11T03:31:12.314Z,12.87
2018-10-11T03:32:16.764Z,12.82
2018-10-11T03:33:21.388Z,12.78
2018-10-11T03:34:26.432Z,12.80
2018-10-11T03:35:30.802Z,12.80
2018-10-11T03:36:35.149Z,12.79
2018-10-11T03:37:40.787Z,12.78
2018-10-11T03:38:45.159Z,12.72
2018-10-11T03:39:50.000Z,12.70
2018-10-11T03:40:54.463Z,12.66
2018-10-11T03:41:59.666Z,12.65
2018-10-11T03:43:04.013Z,12.63
2018-10-11T03:44:08.377Z,12.62
2018-10-11T03:45:12.778Z,12.60
2018-10-11T03:46:17.555Z,12.45
2018-10-11T03:47:21.902Z,12.35
2018-10-11T03:48:26.660Z,12.32
2018-10-11T03:49:31.022Z,12.33
2018-10-11T03:50:35.421Z,12.35
2018-10-11T03:51:39.985Z,12.38
2018-10-11T03:52:44.693Z,12.40
2018-10-11T03:53:49.053Z,12.43
2018-10-11T03:54:53.419Z,12.45
2018-10-11T03:55:57.799Z,12.47
2018-10-11T03:57:02.221Z,12.49
2018-10-11T03:58:07.286Z,12.51
2018-10-11T03:59:12.018Z,12.55
2018-10-11T04:00:16.482Z,12.58
2018-10-11T04:01:20.885Z,12.56
2018-10-11T04:02:25.234Z,12.44
2018-10-11T04:03:29.661Z,12.40
2018-10-11T04:04:34.053Z,12.37
2018-10-11T04:05:38.852Z,12.35
2018-10-11T04:06:43.275Z,12.34
2018-10-11T04:07:47.790Z,12.35
2018-10-11T04:08:52.134Z,12.34
2018-10-11T04:09:56.497Z,12.34
2018-10-11T04:11:00.818Z,12.30
2018-10-11T04:12:06.913Z,12.23
2018-10-11T04:13:11.308Z,12.18
2018-10-11T04:14:15.663Z,12.16
2018-10-11T04:15:20.064Z,12.16
2018-10-11T04:16:24.403Z,12.12
2018-10-11T04:17:29.395Z,12.14
2018-10-11T04:18:34.224Z,12.11
2018-10-11T04:19:38.546Z,12.10
2018-10-11T04:20:42.861Z,12.05
2018-10-11T04:21:47.257Z,12.02
2018-10-11T04:22:51.606Z,11.98
2018-10-11T04:23:55.919Z,11.98
2018-10-11T04:25:00.695Z,12.00
2018-10-11T04:26:05.152Z,12.03
2018-10-11T04:27:09.791Z,12.05
2018-10-11T04:28:14.120Z,12.05
2018-10-11T04:29:18.530Z,12.07
2018-10-11T04:30:22.919Z,12.08
2018-10-11T04:31:28.598Z,12.09
2018-10-11T04:32:33.044Z,12.11
2018-10-11T04:33:37.434Z,12.13
2018-10-11T04:34:41.931Z,12.13
2018-10-11T04:35:46.356Z,12.13
2018-10-11T04:36:50.670Z,12.11
2018-10-11T04:37:55.347Z,12.07
2018-10-11T04:38:59.695Z,12.00
2018-10-11T04:40:04.105Z,11.99
2018-10-11T04:41:08.430Z,11.98
2018-10-11T04:42:12.775Z,11.94
2018-10-11T04:43:17.324Z,11.91
2018-10-11T04:44:21.833Z,11.93
2018-10-11T04:45:26.175Z,11.93
2018-10-11T04:46:30.524Z,11.87
2018-10-11T04:47:34.889Z,11.87
2018-10-11T04:48:39.229Z,11.86
2018-10-11T04:49:43.571Z,11.88
2018-10-11T04:50:48.390Z,11.87
2018-10-11T04:51:52.753Z,11.88
2018-10-11T04:52:57.298Z,11.81
2018-10-11T04:54:01.675Z,11.80
2018-10-11T04:55:06.398Z,11.80
2018-10-11T04:56:10.785Z,11.79
2018-10-11T04:57:15.624Z,11.79
2018-10-11T04:58:20.022Z,11.78
2018-10-11T04:59:24.682Z,11.58
2018-10-11T05:00:29.316Z,11.47
2018-10-11T05:01:34.517Z,11.44
2018-10-11T05:02:39.162Z,11.45
2018-10-11T05:03:43.774Z,11.49
2018-10-11T05:04:48.297Z,11.51
2018-10-11T05:05:52.714Z,11.56
2018-10-11T05:06:57.082Z,11.56
2018-10-11T05:08:01.943Z,11.54
2018-10-11T05:09:07.109Z,11.51
2018-10-11T05:10:11.475Z,11.47
2018-10-11T05:11:16.574Z,11.42
2018-10-11T05:12:21.000Z,11.41
2018-10-11T05:13:31.384Z,11.41
2018-10-11T05:14:35.806Z,11.38
2018-10-11T05:15:41.024Z,11.41
2018-10-11T05:16:45.442Z,11.46
2018-10-11T05:17:50.483Z,11.44
2018-10-11T05:18:58.239Z,11.42
2018-10-11T05:20:03.234Z,11.41
2018-10-11T05:21:09.821Z,11.40
2018-10-11T05:22:14.270Z,11.40
2018-10-11T05:23:18.665Z,11.39
2018-10-11T05:24:23.042Z,11.38
2018-10-11T05:25:27.473Z,11.36
2018-10-11T05:26:32.383Z,11.35
2018-10-11T05:27:36.766Z,11.31
2018-10-11T05:28:41.479Z,11.23
2018-10-11T05:29:45.935Z,11.17
2018-10-11T05:43:55.641Z,11.19
2018-10-11T05:45:30.696Z,11.34
2018-10-11T05:46:35.221Z,11.26
2018-10-11T05:47:39.562Z,11.15
2018-10-11T05:48:43.968Z,11.12
2018-10-11T05:49:49.329Z,11.13
2018-10-11T05:50:53.910Z,11.18
2018-10-11T05:51:58.478Z,11.26
2018-10-11T05:53:03.759Z,11.36
2018-10-11T05:54:09.055Z,11.40
2018-10-11T05:55:13.780Z,11.39
2018-10-11T05:56:19.313Z,11.42
2018-10-11T05:57:23.640Z,11.44
2018-10-11T05:58:28.517Z,11.44
2018-10-11T05:59:33.059Z,11.31
2018-10-11T06:00:37.455Z,11.38
2018-10-11T06:01:41.850Z,11.40
2018-10-11T06:02:55.986Z,11.41
2018-10-11T06:04:04.420Z,11.40
2018-10-11T06:05:13.223Z,11.40
2018-10-11T06:06:18.240Z,11.44
2018-10-11T06:07:22.620Z,11.37
2018-10-11T06:08:27.042Z,11.49
2018-10-11T06:09:31.928Z,11.66
2018-10-11T06:10:37.630Z,11.83
2018-10-11T06:11:42.083Z,11.86
2018-10-11T06:12:46.548Z,11.90
2018-10-11T06:13:51.792Z,11.84
2018-10-11T06:14:58.148Z,11.88
2018-10-11T06:16:02.936Z,12.08
2018-10-11T06:17:07.543Z,12.24
2018-10-11T06:18:12.402Z,12.32
2018-10-11T06:19:17.341Z,12.24
2018-10-11T06:20:21.731Z,12.36
2018-10-11T06:21:26.761Z,12.52
2018-10-11T06:22:32.314Z,12.73
2018-10-11T06:23:37.956Z,12.89
2018-10-11T06:24:43.437Z,12.98
2018-10-11T06:25:49.581Z,13.12
2018-10-11T06:26:57.283Z,13.37
2018-10-11T06:28:02.393Z,13.64
2018-10-11T06:29:07.928Z,13.82
2018-10-11T06:30:14.739Z,14.13
2018-10-11T06:31:19.394Z,14.33
2018-10-11T06:32:24.214Z,14.37
2018-10-11T06:33:28.630Z,14.52
2018-10-11T06:34:33.759Z,14.77
2018-10-11T06:35:41.658Z,15.09
2018-10-11T06:36:46.487Z,15.47
2018-10-11T06:37:50.966Z,15.78
2018-10-11T06:39:01.409Z,15.96
2018-10-11T06:40:07.573Z,16.11
2018-10-11T06:41:15.046Z,16.23
2018-10-11T06:42:19.528Z,16.41
2018-10-11T06:43:24.915Z,16.69
2018-10-11T06:44:29.340Z,16.56
2018-10-11T06:45:34.339Z,16.01
2018-10-11T06:46:39.112Z,15.93
2018-10-11T06:47:46.700Z,16.19
2018-10-11T06:48:51.951Z,16.84
2018-10-11T06:49:56.462Z,17.05
2018-10-11T06:51:01.398Z,16.85
2018-10-11T06:52:15.717Z,16.39
2018-10-11T06:53:21.503Z,16.32
2018-10-11T06:54:27.184Z,16.52
2018-10-11T06:55:35.543Z,16.73
2018-10-11T06:56:49.413Z,16.93
2018-10-11T06:57:55.451Z,17.11
2018-10-11T06:59:00.688Z,17.40
2018-10-11T07:00:05.572Z,17.99
2018-10-11T07:01:10.129Z,18.44
2018-10-11T07:02:14.621Z,18.86
2018-10-11T07:03:19.412Z,19.24
2018-10-11T07:04:24.160Z,19.73
2018-10-11T07:05:32.014Z,19.60
2018-10-11T07:06:36.734Z,19.24
2018-10-11T07:07:42.887Z,19.37
2018-10-11T07:08:48.392Z,19.58
2018-10-11T07:09:54.276Z,19.86
2018-10-11T07:10:59.018Z,20.32
2018-10-11T07:12:04.815Z,20.80
2018-10-11T07:13:09.962Z,21.15
2018-10-11T07:14:14.986Z,21.23
2018-10-11T07:15:20.928Z,21.77
2018-10-11T07:16:25.585Z,22.15
2018-10-11T07:17:30.646Z,22.49
2018-10-11T07:18:34.985Z,22.03
2018-10-11T07:19:39.462Z,21.74
2018-10-11T07:21:53.381Z,22.50
2018-10-11T07:22:58.823Z,22.67
2018-10-11T07:24:06.659Z,22.72
2018-10-11T07:26:33.415Z,21.59
2018-10-11T07:27:38.807Z,21.72
2018-10-11T07:28:43.172Z,21.80
2018-10-11T07:29:48.577Z,21.78
2018-10-11T07:30:53.559Z,22.10
2018-10-11T07:31:59.965Z,22.43
2018-10-11T07:33:04.378Z,22.82
2018-10-11T07:34:08.884Z,23.17
2018-10-11T07:35:13.431Z,23.46
2018-10-11T07:36:17.834Z,23.80
2018-10-11T07:37:22.565Z,24.09
2018-10-11T07:38:27.017Z,24.35
2018-10-11T07:39:31.432Z,24.70
2018-10-11T07:40:35.900Z,24.25
2018-10-11T07:41:40.329Z,23.63
2018-10-11T07:42:45.771Z,23.67
2018-10-11T07:43:51.928Z,23.81
2018-10-11T07:44:58.023Z,23.95
2018-10-11T07:46:02.787Z,23.85
2018-10-11T07:47:08.371Z,23.38
2018-10-11T07:48:13.270Z,23.65
2018-10-11T07:49:19.076Z,24.34
2018-10-11T07:50:24.675Z,24.79
2018-10-11T07:51:30.258Z,25.11
2018-10-11T07:52:35.150Z,24.19
2018-10-11T07:53:39.796Z,24.85
2018-10-11T07:54:44.373Z,24.57
2018-10-11T07:55:48.914Z,23.73
2018-10-11T07:56:53.865Z,23.89
2018-10-11T07:57:58.809Z,34.54
2018-10-11T07:59:14.415Z,24.66
2018-10-11T08:00:19.140Z,24.94
2018-10-11T08:01:23.741Z,23.99
2018-10-11T10:42:58.027Z,26.40
2018-10-11T10:44:02.810Z,26.72
2018-10-11T10:45:07.664Z,26.94
2018-10-11T10:46:12.099Z,27.07
2018-10-11T10:47:16.527Z,27.44
2018-10-11T10:48:21.377Z,26.93
2018-10-11T10:49:26.496Z,26.91
2018-10-11T10:50:33.264Z,26.37
2018-10-11T10:51:39.276Z,25.39
2018-10-11T10:52:46.269Z,25.06
2018-10-11T10:53:51.570Z,26.19
2018-10-11T10:55:00.483Z,27.34
2018-10-11T10:56:05.299Z,28.49
2018-10-11T10:57:09.998Z,29.90
2018-10-11T10:58:17.679Z,30.83
2018-10-11T10:59:22.497Z,30.78
2018-10-11T11:00:27.733Z,30.65
2018-10-11T11:01:32.899Z,30.31
2018-10-11T11:02:38.948Z,29.98
2018-10-11T11:03:45.249Z,31.08
2018-10-11T11:04:50.559Z,31.02
2018-10-11T11:05:55.357Z,30.78
2018-10-11T11:07:00.803Z,30.41
2018-10-11T11:08:06.297Z,30.61
2018-10-11T11:09:12.582Z,30.49
2018-10-11T11:10:18.703Z,30.25
2018-10-11T11:11:25.589Z,29.84
2018-10-11T11:12:30.987Z,30.13
2018-10-11T11:13:36.568Z,30.75
2018-10-11T11:14:45.298Z,30.21
2018-10-11T11:15:51.410Z,28.85
2018-10-11T11:16:55.920Z,28.42
2018-10-11T11:18:00.868Z,28.36
2018-10-11T11:19:07.781Z,27.79
2018-10-11T11:20:13.253Z,27.82
2018-10-11T11:21:19.710Z,27.34
2018-10-11T11:22:24.534Z,26.24
2018-10-11T11:23:28.953Z,26.52
2018-10-11T11:24:35.975Z,27.58
2018-10-11T11:25:40.602Z,28.41
2018-10-11T11:26:46.052Z,28.54
2018-10-11T11:27:51.393Z,28.13
2018-10-11T11:28:57.860Z,28.82
2018-10-11T11:30:04.578Z,28.74
2018-10-11T11:31:10.500Z,27.17
2018-10-11T11:32:17.371Z,26.45
2018-10-11T11:33:23.799Z,26.73
2018-10-11T11:34:33.831Z,27.32
2018-10-11T11:35:39.216Z,27.66
2018-10-11T11:36:44.290Z,26.91
2018-10-11T11:37:49.362Z,26.93
2018-10-11T11:38:55.575Z,27.45
2018-10-11T11:40:00.284Z,27.98
2018-10-11T11:41:06.605Z,27.71
2018-10-11T11:42:13.886Z,27.75
2018-10-11T11:43:20.351Z,27.44
2018-10-11T11:44:26.060Z,27.03
2018-10-11T11:45:33.094Z,26.41
2018-10-11T11:46:38.251Z,26.06
2018-10-11T11:47:44.742Z,26.00
2018-10-11T11:48:49.186Z,26.21
2018-10-11T11:49:55.727Z,25.87
2018-10-11T11:51:00.205Z,26.50
2018-10-11T11:52:05.305Z,27.16
2018-10-11T11:53:09.703Z,27.86
2018-10-11T11:54:20.963Z,28.17
2018-10-11T11:55:25.500Z,27.62
2018-10-11T11:56:29.970Z,27.01
2018-10-11T11:57:35.738Z,26.56
2018-10-11T11:58:40.889Z,26.41
2018-10-11T11:59:45.556Z,26.08
2018-10-11T12:00:50.580Z,26.48
2018-10-11T12:01:55.229Z,26.74
2018-10-11T12:03:02.412Z,26.28
2018-10-11T12:04:08.508Z,26.75
2018-10-11T12:05:13.672Z,27.13
2018-10-11T12:06:19.291Z,27.15
2018-10-11T12:07:24.353Z,27.63
2018-10-11T12:08:29.468Z,27.71
2018-10-11T12:09:34.751Z,27.29
2018-10-11T12:10:39.670Z,26.17
2018-10-11T12:11:45.027Z,25.60
2018-10-11T12:12:54.163Z,25.04
2018-10-11T12:14:01.994Z,25.59
2018-10-11T12:15:08.773Z,26.44
2018-10-11T12:16:14.074Z,26.61
2018-10-11T12:17:20.357Z,26.34
2018-10-11T12:18:27.131Z,25.63
2018-10-11T12:19:35.056Z,25.43
2018-10-11T12:20:45.725Z,25.60
2018-10-11T12:21:52.364Z,26.47
2018-10-11T12:22:59.698Z,26.24
2018-10-11T12:24:04.824Z,26.13
2018-10-11T12:25:10.515Z,26.14
2018-10-11T12:26:18.664Z,26.41
2018-10-11T12:27:25.615Z,27.03
2018-10-11T12:28:36.128Z,27.43
2018-10-11T12:29:42.746Z,27.58
2018-10-11T12:30:47.717Z,27.53
2018-10-11T12:31:52.153Z,27.77
2018-10-11T12:32:58.504Z,28.09
2018-10-11T12:34:03.932Z,27.53
2018-10-11T12:35:09.301Z,27.59
2018-10-11T12:36:14.831Z,26.98
2018-10-11T12:37:21.702Z,26.52
2018-10-11T12:38:27.586Z,26.46
2018-10-11T12:39:33.441Z,26.06
2018-10-11T12:40:38.524Z,25.59
2018-10-11T12:41:43.644Z,26.14
2018-10-11T12:42:48.780Z,26.45
2018-10-11T12:43:53.565Z,26.43
2018-10-11T12:44:58.695Z,26.58
2018-10-11T12:46:03.787Z,27.23
2018-10-11T12:47:12.952Z,27.85
2018-10-11T12:48:19.489Z,28.51
2018-10-11T12:49:24.019Z,29.00
2018-10-11T12:50:28.797Z,29.22
2018-10-11T12:51:34.134Z,28.42
2018-10-11T12:52:39.854Z,28.76
2018-10-11T12:53:48.302Z,29.42
2018-10-11T12:54:51.352Z,29.54
2018-10-11T12:55:56.113Z,29.72
2018-10-11T12:57:01.586Z,30.01
2018-10-11T12:58:06.939Z,29.27
2018-10-11T12:59:13.681Z,28.35
2018-10-11T13:00:18.897Z,27.69
2018-10-11T13:01:24.343Z,26.98
2018-10-11T13:02:30.544Z,26.73
2018-10-11T13:03:36.338Z,26.44
2018-10-11T13:04:41.139Z,26.11
2018-10-11T13:05:47.488Z,26.43
2018-10-11T13:06:52.068Z,26.61
2018-10-11T13:07:58.133Z,26.41
2018-10-11T13:09:02.840Z,26.18
2018-10-11T13:10:07.672Z,26.03
2018-10-11T13:11:13.062Z,25.74
2018-10-11T13:12:20.191Z,25.58
2018-10-11T13:13:27.477Z,25.71
2018-10-11T13:14:33.352Z,26.61
2018-10-11T13:15:40.415Z,27.69
2018-10-11T13:16:46.312Z,28.68
2018-10-11T13:17:51.257Z,29.38
2018-10-11T13:18:56.346Z,28.80
2018-10-11T13:20:01.846Z,28.94
2018-10-11T13:21:07.925Z,29.30
2018-10-11T13:22:12.905Z,29.34
2018-10-11T13:23:18.709Z,29.70
2018-10-11T13:24:22.270Z,29.92
2018-10-11T13:25:27.548Z,29.37
2018-10-11T13:26:33.405Z,28.53
2018-10-11T13:27:38.308Z,27.47
2018-10-11T13:28:43.835Z,27.96
2018-10-11T13:29:49.261Z,28.10
2018-10-11T13:30:54.351Z,28.40
2018-10-11T13:31:59.447Z,28.24
2018-10-11T13:33:04.583Z,28.29
2018-10-11T13:34:11.006Z,28.64
2018-10-11T13:35:17.864Z,28.78
2018-10-11T13:36:22.450Z,28.45
2018-10-11T13:37:28.347Z,28.32
2018-10-11T13:38:33.397Z,27.59
2018-10-11T13:39:38.220Z,26.95
2018-10-11T13:40:43.058Z,26.34
2018-10-11T13:41:49.864Z,26.38
2018-10-11T13:42:54.589Z,26.54
2018-10-11T13:43:59.291Z,26.37
2018-10-11T13:45:04.381Z,26.03
2018-10-11T13:46:09.146Z,25.48
2018-10-11T13:47:15.603Z,25.49
2018-10-11T13:48:31.005Z,25.67
2018-10-11T13:49:38.534Z,25.83
2018-10-11T13:50:44.960Z,26.33
2018-10-11T13:51:50.415Z,26.28
2018-10-11T13:52:56.759Z,26.51
2018-10-11T13:54:02.244Z,27.13
2018-10-11T13:55:11.102Z,27.41
2018-10-11T13:56:13.643Z,27.44
2018-10-11T13:57:20.895Z,27.43
2018-10-11T13:58:24.054Z,27.49
2018-10-11T13:59:29.129Z,27.33
2018-10-11T14:00:35.001Z,26.86
2018-10-11T14:01:40.044Z,26.72
2018-10-11T14:02:45.235Z,25.53
2018-10-11T14:03:50.191Z,24.70
2018-10-11T14:05:00.493Z,24.06
2018-10-11T14:06:06.664Z,23.62
2018-10-11T14:07:12.885Z,23.60
2018-10-11T14:08:18.294Z,23.58
2018-10-11T14:09:23.444Z,23.50
2018-10-11T14:10:30.498Z,23.49
2018-10-11T14:11:36.832Z,23.38
2018-10-11T14:12:41.469Z,23.31
2018-10-11T14:13:46.124Z,23.19
2018-10-11T14:14:51.585Z,23.40
2018-10-11T14:15:57.230Z,23.22
2018-10-11T14:17:02.024Z,23.35
2018-10-11T14:18:11.908Z,23.34
2018-10-11T14:19:14.095Z,23.40
2018-10-11T14:20:21.288Z,23.42
2018-10-11T14:21:26.824Z,23.25
2018-10-11T14:22:31.526Z,23.11
2018-10-11T14:23:36.297Z,23.19
2018-10-11T14:24:41.426Z,23.13
2018-10-11T14:25:46.385Z,23.02
2018-10-11T14:26:51.501Z,22.84
2018-10-11T14:27:57.189Z,22.59
2018-10-11T14:29:03.733Z,22.23
2018-10-11T14:30:15.395Z,22.24
2018-10-11T14:31:21.223Z,22.07
2018-10-11T14:32:26.833Z,21.96
2018-10-11T14:33:31.752Z,21.95
2018-10-11T14:34:36.511Z,21.81
2018-10-11T14:35:41.348Z,21.71
2018-10-11T14:36:47.633Z,21.68
2018-10-11T14:37:52.327Z,21.61
2018-10-11T14:38:56.905Z,21.59
2018-10-11T14:40:02.455Z,21.49
2018-10-11T14:41:06.999Z,21.37
2018-10-11T14:42:11.569Z,21.42
2018-10-11T14:43:21.206Z,21.24
2018-10-11T14:44:25.799Z,21.15
2018-10-11T14:45:33.491Z,20.95
2018-10-11T14:46:38.813Z,20.99
2018-10-11T14:47:43.787Z,20.92
2018-10-11T14:48:52.266Z,20.81
2018-10-11T14:49:58.261Z,20.83
2018-10-11T14:51:05.195Z,20.85
2018-10-11T14:52:10.437Z,20.87
2018-10-11T14:53:15.048Z,20.71
2018-10-11T14:54:19.990Z,20.72
2018-10-11T14:55:26.523Z,20.66
2018-10-11T14:56:31.909Z,20.60
2018-10-11T14:57:37.722Z,20.62
2018-10-11T14:58:42.883Z,20.61
2018-10-11T14:59:47.971Z,20.59
2018-10-11T15:00:52.456Z,20.59
2018-10-11T15:01:58.450Z,20.56
2018-10-11T15:03:03.294Z,20.44
2018-10-11T15:04:09.961Z,20.44
2018-10-11T15:05:15.194Z,20.47
2018-10-11T15:06:19.810Z,20.51
2018-10-11T15:07:24.316Z,20.51
2018-10-11T15:08:29.201Z,20.52
2018-10-11T15:09:35.241Z,20.48
2018-10-11T15:10:40.373Z,20.39
2018-10-11T15:11:45.850Z,20.42
2018-10-11T15:12:50.371Z,20.44
2018-10-11T15:13:58.859Z,20.39
2018-10-11T15:15:03.714Z,20.39
2018-10-11T15:16:08.161Z,20.65
2018-10-11T15:17:13.235Z,20.67
2018-10-11T15:18:20.117Z,20.53
2018-10-11T15:19:24.959Z,20.41
2018-10-11T15:20:30.290Z,20.21
2018-10-11T15:21:35.491Z,20.17
2018-10-11T15:22:40.740Z,20.13
2018-10-11T15:23:45.311Z,20.18
2018-10-11T15:24:50.696Z,20.07
2018-10-11T15:25:56.443Z,19.89
2018-10-11T15:27:00.930Z,19.92
2018-10-11T15:28:05.974Z,19.91
2018-10-11T15:29:10.975Z,19.98
2018-10-11T15:30:16.825Z,19.91
2018-10-11T15:31:21.933Z,19.91
2018-10-11T15:32:27.007Z,19.91
2018-10-11T15:33:33.047Z,19.94
2018-10-11T15:34:38.037Z,19.91
2018-10-11T15:35:42.750Z,19.81
2018-10-11T15:36:48.538Z,19.79
2018-10-11T15:37:53.732Z,19.86
2018-10-11T15:38:59.388Z,19.77
2018-10-11T15:40:04.186Z,19.76
2018-10-11T15:41:09.280Z,19.77
2018-10-11T15:42:15.101Z,19.72
2018-10-11T15:43:20.065Z,19.70
2018-10-11T15:44:24.606Z,19.68
2018-10-11T15:45:31.011Z,19.64
2018-10-11T15:46:36.953Z,19.62
2018-10-11T15:47:41.439Z,19.55
2018-10-11T15:48:45.944Z,19.56
2018-10-11T15:49:51.685Z,19.53
2018-10-11T15:50:58.200Z,19.55
2018-10-11T15:52:04.952Z,19.55
2018-10-11T15:53:10.636Z,19.52
2018-10-11T15:54:16.446Z,19.45
2018-10-11T15:55:24.184Z,19.46
2018-10-11T15:56:31.305Z,19.46
2018-10-11T15:57:36.774Z,19.41
2018-10-11T15:58:42.754Z,19.36
2018-10-11T15:59:47.825Z,19.34
2018-10-11T16:00:52.783Z,19.40
2018-10-11T16:01:57.751Z,19.41
2018-10-11T16:03:06.230Z,19.42
2018-10-11T16:04:12.082Z,19.39
2018-10-11T16:05:17.033Z,19.33
2018-10-11T16:06:21.574Z,19.37
2018-10-11T16:07:27.049Z,19.38
2018-10-11T16:08:38.117Z,19.40
2018-10-11T16:09:42.595Z,19.43
2018-10-11T16:10:49.039Z,21.96
2018-10-11T16:11:53.801Z,19.33
2018-10-11T16:12:59.618Z,19.27
2018-10-11T16:14:05.974Z,19.23
2018-10-11T16:15:11.006Z,19.22
2018-10-11T16:16:16.380Z,19.23
2018-10-11T16:17:21.214Z,19.22
2018-10-11T16:18:26.118Z,19.18
2018-10-11T16:19:34.348Z,19.15
2018-10-11T16:20:38.822Z,19.18
2018-10-11T16:21:44.170Z,19.09
2018-10-11T16:22:48.668Z,19.04
2018-10-11T16:23:54.247Z,19.14
2018-10-11T16:24:58.685Z,19.16
2018-10-11T16:26:03.520Z,19.14
2018-10-11T16:27:08.158Z,19.08
2018-10-11T16:28:13.349Z,19.07
2018-10-11T16:29:17.854Z,19.09
2018-10-11T16:30:23.528Z,19.07
2018-10-11T16:43:15.463Z,18.84
2018-10-11T16:44:20.545Z,18.85
2018-10-11T16:45:25.042Z,18.86
2018-10-11T16:46:32.950Z,18.85
2018-10-11T16:47:37.868Z,18.84
2018-10-11T16:48:43.737Z,18.82
2018-10-11T16:49:48.656Z,18.83
2018-10-11T16:50:53.721Z,18.78
2018-10-11T16:51:58.765Z,18.81
2018-10-11T16:53:03.285Z,18.78
2018-10-11T16:54:11.520Z,18.81
2018-10-11T16:55:17.208Z,18.80
2018-10-11T22:43:26.798Z,15.19
2018-10-11T22:44:32.286Z,15.05
2018-10-11T22:45:37.386Z,15.06
2018-10-11T22:46:42.333Z,15.11
2018-10-11T22:47:48.001Z,15.14
2018-10-11T22:48:52.943Z,15.13
2018-10-11T22:49:58.511Z,15.14
2018-10-11T22:51:03.080Z,15.13
2018-10-11T22:52:07.887Z,15.10
2018-10-11T22:53:12.619Z,15.06
2018-10-11T22:54:17.380Z,15.01
2018-10-11T22:55:22.912Z,14.99
2018-10-11T22:56:27.760Z,14.93